createdAt,value
2019-01-25T00:00:50.505Z,96205.03
2019-01-25T00:03:16.438Z,96205.48
2019-01-25T00:05:42.300Z,96198.52
2019-01-25T00:08:08.136Z,96200.70
2019-01-25T00:10:34.098Z,96197.67
2019-01-25T00:13:00.006Z,96197.87
2019-01-25T00:15:26.067Z,96202.33
2019-01-25T00:17:52.004Z,96203.10
2019-01-25T00:20:17.990Z,96204.91
2019-01-25T00:23:03.694Z,96203.04
2019-01-25T00:25:29.526Z,96203.04
2019-01-25T00:27:55.355Z,96209.97
2019-01-25T00:30:21.341Z,96212.58
2019-01-25T00:32:47.315Z,96217.80
2019-01-25T00:35:13.157Z,96219.55
2019-01-25T00:37:39.088Z,96217.12
2019-01-25T00:40:46.586Z,96224.05
2019-01-25T00:43:12.421Z,96222.49
2019-01-25T00:45:38.307Z,96224.56
2019-01-25T00:48:04.281Z,96224.56
2019-01-25T00:50:30.135Z,96220.19
2019-01-25T00:52:55.962Z,96227.34
2019-01-25T00:55:21.904Z,96226.84
2019-01-25T00:57:47.828Z,96227.65
2019-01-25T01:00:33.541Z,96232.10
2019-01-25T01:02:59.473Z,96231.59
2019-01-25T01:05:25.320Z,96227.96
2019-01-25T01:07:51.358Z,96233.70
2019-01-25T01:10:58.853Z,96234.88
2019-01-25T01:13:24.702Z,96233.56
2019-01-25T01:15:50.535Z,96240.73
2019-01-25T01:18:16.391Z,96244.19
2019-01-25T01:20:42.260Z,96243.23
2019-01-25T01:23:08.096Z,96243.75
2019-01-25T01:25:33.930Z,96246.33
2019-01-25T01:27:59.832Z,96256.38
2019-01-25T01:30:25.658Z,96252.51
2019-01-25T01:32:51.788Z,96254.81
2019-01-25T01:35:17.789Z,96253.45
2019-01-25T01:37:43.721Z,96253.15
2019-01-25T01:40:51.196Z,96260.83
2019-01-25T01:43:17.036Z,96256.06
2019-01-25T01:45:42.883Z,96258.75
2019-01-25T01:48:08.699Z,96255.12
2019-01-25T01:50:34.555Z,96254.98
2019-01-25T01:53:00.389Z,96258.28
2019-01-25T01:55:26.201Z,96261.23
2019-01-25T01:57:52.025Z,96258.37
2019-01-25T02:00:59.510Z,96257.60
2019-01-25T02:03:25.404Z,96258.01
2019-01-25T02:05:51.235Z,96256.72
2019-01-25T02:08:17.077Z,96260.08
2019-01-25T02:10:42.995Z,96263.95
2019-01-25T02:13:08.844Z,96269.11
2019-01-25T02:15:34.658Z,96263.55
2019-01-25T02:18:00.504Z,96271.59
2019-01-25T02:21:07.989Z,96270.84
2019-01-25T02:23:33.920Z,96266.97
2019-01-25T02:25:59.744Z,96266.97
2019-01-25T02:28:25.584Z,96270.09
2019-01-25T02:30:51.407Z,96270.40
2019-01-25T02:33:17.248Z,96273.28
2019-01-25T02:35:43.078Z,96276.17
2019-01-25T02:38:15.903Z,96277.30
2019-01-25T02:40:41.704Z,96278.99
2019-01-25T02:43:07.543Z,96279.53
2019-01-25T02:45:33.382Z,96274.07
2019-01-25T02:47:59.185Z,96273.46
2019-01-25T02:50:25.047Z,96276.38
2019-01-25T02:52:50.873Z,96269.42
2019-01-25T02:55:16.927Z,96275.09
2019-01-25T02:57:42.957Z,96276.92
2019-01-25T03:00:50.438Z,96282.56
2019-01-25T03:03:16.272Z,96276.85
2019-01-25T03:05:42.160Z,96283.71
2019-01-25T03:08:08.058Z,96285.58
2019-01-25T03:10:33.892Z,96282.19
2019-01-25T03:12:59.822Z,96278.92
2019-01-25T03:15:25.728Z,96284.91
2019-01-25T03:18:33.190Z,96283.88
2019-01-25T03:20:59.056Z,96280.55
2019-01-25T03:23:24.877Z,96280.08
2019-01-25T03:25:50.719Z,96281.13
2019-01-25T03:28:16.537Z,96281.06
2019-01-25T03:30:42.467Z,96280.41
2019-01-25T03:33:08.314Z,96278.38
2019-01-25T03:35:34.161Z,96278.41
2019-01-25T03:37:59.971Z,96281.27
2019-01-25T03:41:07.441Z,96280.69
2019-01-25T03:43:33.250Z,96283.20
2019-01-25T03:45:59.210Z,96287.20
2019-01-25T03:48:25.043Z,96285.38
2019-01-25T03:50:50.863Z,96289.39
2019-01-25T03:53:16.759Z,96289.90
2019-01-25T03:55:42.569Z,96288.54
2019-01-25T03:58:08.391Z,96287.52
2019-01-25T04:00:34.220Z,96281.81
2019-01-25T04:03:00.062Z,96283.85
2019-01-25T04:05:25.985Z,96291.36
2019-01-25T04:07:51.824Z,96288.27
2019-01-25T04:11:03.884Z,96270.73
2019-01-25T04:13:27.006Z,96286.43
2019-01-25T04:15:52.942Z,96295.50
2019-01-25T04:18:18.771Z,96291.12
2019-01-25T04:20:44.573Z,96290.34
2019-01-25T04:23:10.421Z,96292.38
2019-01-25T04:25:36.232Z,96296.99
2019-01-25T04:28:02.083Z,96293.62
2019-01-25T04:31:09.566Z,96290.23
2019-01-25T04:33:35.406Z,96290.34
2019-01-25T04:36:01.237Z,96297.70
2019-01-25T04:38:27.060Z,96292.81
2019-01-25T04:40:52.880Z,96293.33
2019-01-25T04:43:18.730Z,96297.95
2019-01-25T04:45:44.598Z,96308.23
2019-01-25T04:48:30.290Z,96297.20
2019-01-25T04:50:56.103Z,96303.65
2019-01-25T04:53:21.947Z,96303.85
2019-01-25T04:55:47.758Z,96300.25
2019-01-25T05:01:48.701Z,96303.27
2019-01-25T05:04:14.556Z,96309.95
2019-01-25T05:06:40.530Z,96309.95
2019-01-25T05:09:48.131Z,96317.36
2019-01-25T05:12:13.949Z,96317.97
2019-01-25T05:14:39.796Z,96315.39
2019-01-25T05:17:05.602Z,96316.13
2019-01-25T05:19:51.317Z,96321.73
2019-01-25T05:22:17.216Z,96327.47
2019-01-25T05:24:43.007Z,96327.78
2019-01-25T05:27:08.851Z,96327.78
2019-01-25T05:29:54.530Z,96338.07
2019-01-25T05:32:20.449Z,96337.80
2019-01-25T05:34:46.308Z,96338.07
2019-01-25T05:37:12.263Z,96342.89
2019-01-25T05:39:38.125Z,96341.47
2019-01-25T05:42:03.946Z,96341.94
2019-01-25T05:44:29.776Z,96344.64
2019-01-25T05:46:55.607Z,96349.68
2019-01-25T05:50:03.092Z,96351.69
2019-01-25T05:52:28.986Z,96351.80
2019-01-25T05:54:54.815Z,96354.88
2019-01-25T05:57:20.685Z,96351.48
2019-01-25T05:59:46.532Z,96353.95
2019-01-25T06:02:12.371Z,96354.61
2019-01-25T06:04:38.450Z,96351.25
2019-01-25T06:07:04.394Z,96354.66
2019-01-25T06:09:30.195Z,96361.80
2019-01-25T06:11:56.034Z,96361.73
2019-01-25T06:14:21.967Z,96361.65
2019-01-25T06:16:47.806Z,96365.32
2019-01-25T06:19:13.647Z,96358.63
2019-01-25T06:21:39.472Z,96365.16
2019-01-25T06:24:05.331Z,96368.38
2019-01-25T06:26:31.261Z,96369.16
2019-01-25T06:28:57.075Z,96375.09
2019-01-25T06:31:22.873Z,96371.14
2019-01-25T06:33:48.741Z,96379.48
2019-01-25T06:36:14.582Z,96378.97
2019-01-25T06:38:40.419Z,96374.83
2019-01-25T06:44:13.565Z,96381.09
2019-01-25T06:46:39.435Z,96388.63
2019-01-25T06:49:05.266Z,96392.34
2019-01-25T06:51:31.284Z,96394.60
2019-01-25T06:53:57.123Z,96399.06
2019-01-25T06:56:22.947Z,96403.18
2019-01-25T07:04:00.177Z,96416.67
2019-01-25T07:06:26.058Z,96419.80
2019-01-25T07:08:51.896Z,96422.46
2019-01-25T07:11:17.961Z,96418.26
2019-01-25T07:13:43.924Z,96424.37
2019-01-25T07:16:09.913Z,96429.30
2019-01-25T07:18:35.780Z,96434.13
2019-01-25T07:21:01.627Z,96433.85
2019-01-25T07:23:27.521Z,96433.30
2019-01-25T07:25:53.414Z,96431.66
2019-01-25T07:28:19.262Z,96440.86
2019-01-25T07:30:45.249Z,96442.42
2019-01-25T07:33:11.162Z,96454.72
2019-01-25T07:36:18.804Z,96450.62
2019-01-25T07:38:44.677Z,96449.03
2019-01-25T07:41:10.535Z,96453.00
2019-01-25T07:43:36.354Z,96460.50
2019-01-25T07:46:43.887Z,96457.05
2019-01-25T07:49:09.766Z,96455.91
2019-01-25T07:51:35.665Z,96174.38
2019-01-25T07:54:01.541Z,96461.84
2019-01-25T07:56:27.375Z,96465.89
2019-01-25T07:58:53.281Z,96212.34
2019-01-25T08:01:19.193Z,96465.11
2019-01-25T08:03:45.070Z,96469.86
2019-01-25T08:06:10.989Z,96475.02
2019-01-25T08:08:36.871Z,96486.63
2019-01-25T08:11:02.868Z,96482.33
2019-01-25T08:13:28.698Z,96479.37
2019-01-25T08:15:54.587Z,96318.12
2019-01-25T08:18:20.502Z,96488.36
2019-01-25T08:20:46.359Z,96483.02
2019-01-25T08:23:12.189Z,96144.59
2019-01-25T08:25:38.049Z,96490.48
2019-01-25T08:28:04.112Z,96497.28
2019-01-25T08:30:29.954Z,96488.80
2019-01-25T08:33:01.922Z,96486.45
2019-01-25T08:35:30.665Z,96484.97
2019-01-25T08:37:56.695Z,96514.75
2019-01-25T08:40:24.786Z,96490.85
2019-01-25T08:42:50.673Z,96501.69
2019-01-25T08:45:17.359Z,96377.13
2019-01-25T08:47:43.539Z,96499.70
2019-01-25T08:50:13.280Z,96496.89
2019-01-25T08:52:39.285Z,96503.50
2019-01-25T08:55:05.719Z,96493.61
2019-01-25T08:57:31.958Z,96494.59
2019-01-25T08:59:57.779Z,96497.48
2019-01-25T09:02:23.664Z,96505.94
2019-01-25T09:04:51.537Z,96497.52
2019-01-25T09:07:17.402Z,96514.00
2019-01-25T09:09:43.249Z,96385.92
2019-01-25T09:12:09.095Z,96502.61
2019-01-25T09:14:34.951Z,96510.23
2019-01-25T09:17:00.808Z,96504.70
2019-01-25T09:19:26.652Z,96507.17
2019-01-25T09:21:52.505Z,96517.89
2019-01-25T09:24:18.481Z,96518.75
2019-01-25T09:26:44.812Z,96528.11
2019-01-25T09:29:10.983Z,96544.68
2019-01-25T09:31:36.867Z,96525.27
2019-01-25T09:34:02.941Z,96525.21
2019-01-25T09:36:28.780Z,96531.67
2019-01-25T09:38:54.632Z,96537.00
2019-01-25T09:41:20.506Z,96532.66
2019-01-25T09:43:46.388Z,96532.11
2019-01-25T09:46:12.210Z,96540.41
2019-01-25T09:48:38.206Z,96532.72
2019-01-25T09:51:04.283Z,96538.26
2019-01-25T09:53:30.444Z,96536.24
2019-01-25T09:55:58.482Z,96551.56
2019-01-25T09:58:25.271Z,96545.70
2019-01-25T10:01:00.478Z,96546.72
2019-01-25T10:03:26.376Z,96555.36
2019-01-25T10:05:52.194Z,96546.72
2019-01-25T10:08:18.296Z,96537.31
2019-01-25T10:10:44.151Z,96546.99
2019-01-25T10:13:10.253Z,96539.52
2019-01-25T10:15:36.277Z,96529.95
2019-01-25T10:18:02.628Z,96531.37
2019-01-25T10:20:28.468Z,96534.49
2019-01-25T10:22:54.287Z,96524.94
2019-01-25T10:25:20.246Z,96521.12
2019-01-25T10:27:47.274Z,96522.44
2019-01-25T10:30:55.580Z,96525.30
2019-01-25T10:33:21.597Z,96514.88
2019-01-25T10:35:47.446Z,96520.94
2019-01-25T10:38:13.265Z,96521.30
2019-01-25T10:40:39.188Z,96511.30
2019-01-25T10:43:05.101Z,96513.13
2019-01-25T10:46:12.623Z,96512.20
2019-01-25T10:48:38.469Z,96501.16
2019-01-25T10:51:04.458Z,96512.62
2019-01-25T10:53:30.282Z,96485.78
2019-01-25T10:55:56.114Z,96511.52
2019-01-25T10:58:23.465Z,96516.31
2019-01-25T11:00:51.272Z,96515.16
2019-01-25T11:03:17.435Z,96508.82
2019-01-25T11:05:43.233Z,96505.86
2019-01-25T11:08:09.172Z,96509.75
2019-01-25T11:10:34.995Z,96511.22
2019-01-25T11:13:01.316Z,96509.08
2019-01-25T11:15:28.717Z,96506.59
2019-01-25T11:17:54.825Z,96517.75
2019-01-25T11:21:02.330Z,96513.02
2019-01-25T11:23:28.315Z,96516.08
2019-01-25T11:25:55.384Z,96510.41
2019-01-25T11:28:22.535Z,96497.71
2019-01-25T11:30:48.357Z,96500.70
2019-01-25T11:33:14.259Z,96495.61
2019-01-25T11:35:40.272Z,96497.67
2019-01-25T11:38:06.377Z,96506.01
2019-01-25T11:41:13.891Z,96498.28
2019-01-25T11:43:39.728Z,96509.87
2019-01-25T11:46:05.618Z,96510.53
2019-01-25T11:48:33.959Z,96414.32
2019-01-25T11:51:00.088Z,96520.88
2019-01-25T11:53:25.968Z,96515.40
2019-01-25T11:55:51.886Z,96514.30
2019-01-25T11:58:17.764Z,96509.64
2019-01-25T12:03:17.198Z,96517.44
2019-01-25T12:05:43.141Z,96519.23
2019-01-25T12:08:09.461Z,96510.86
2019-01-25T12:10:35.457Z,96500.53
2019-01-25T12:13:01.309Z,96495.83
2019-01-25T12:15:27.202Z,96500.68
2019-01-25T12:17:53.137Z,96495.75
2019-01-25T12:20:42.492Z,96501.04
2019-01-25T12:23:08.446Z,96504.60
2019-01-25T12:25:34.293Z,96508.43
2019-01-25T12:28:05.497Z,96499.70
2019-01-25T12:30:37.884Z,96499.35
2019-01-25T12:33:44.400Z,96506.86
2019-01-25T12:36:10.267Z,96499.01
2019-01-25T12:38:36.086Z,96502.72
2019-01-25T12:41:02.035Z,96506.83
2019-01-25T12:43:27.843Z,96501.09
2019-01-25T12:45:53.781Z,96499.42
2019-01-25T12:48:32.099Z,96491.93
2019-01-25T12:53:58.681Z,96488.22
2019-01-25T12:56:24.529Z,96493.78
2019-01-25T12:58:50.373Z,96498.72
2019-01-25T13:01:16.309Z,96493.13
2019-01-25T13:03:42.153Z,96497.35
2019-01-25T13:06:08.098Z,96489.80
2019-01-25T13:08:33.977Z,96489.05
2019-01-25T13:10:59.806Z,96491.45
2019-01-25T13:13:31.540Z,96496.02
2019-01-25T13:15:53.427Z,96495.20
2019-01-25T13:18:19.295Z,96505.42
2019-01-25T13:20:45.125Z,96496.42
2019-01-25T13:23:10.969Z,96505.34
2019-01-25T13:25:37.155Z,96503.81
2019-01-25T13:28:44.663Z,96499.66
2019-01-25T13:31:10.504Z,96497.31
2019-01-25T13:33:36.566Z,96502.28
2019-01-25T13:36:44.029Z,96501.50
2019-01-25T13:39:10.210Z,96504.91
2019-01-25T13:41:36.113Z,96499.13
2019-01-25T13:44:01.984Z,96497.06
2019-01-25T13:46:27.797Z,96504.89
2019-01-25T13:48:53.603Z,96493.77
2019-01-25T13:51:19.444Z,96494.55
2019-01-25T13:53:45.260Z,96484.94
2019-01-25T13:56:11.106Z,96498.52
2019-01-25T13:58:36.939Z,96503.05
2019-01-25T14:01:02.866Z,96505.28
2019-01-25T14:03:28.708Z,96502.30
2019-01-25T14:05:54.659Z,96498.86
2019-01-25T14:08:20.517Z,96495.22
2019-01-25T14:10:46.367Z,96512.50
2019-01-25T14:13:12.213Z,96512.50
2019-01-25T14:15:38.129Z,96510.91
2019-01-25T14:18:04.195Z,96507.28
2019-01-25T14:21:11.681Z,96513.51
2019-01-25T14:23:37.529Z,96513.67
2019-01-25T14:26:45.051Z,96510.55
2019-01-25T14:29:10.894Z,96506.48
2019-01-25T14:31:36.749Z,96511.80
2019-01-25T14:34:02.779Z,96520.92
2019-01-25T14:36:28.578Z,96507.93
2019-01-25T14:38:54.424Z,96514.98
2019-01-25T14:41:20.636Z,96516.41
2019-01-25T14:43:46.516Z,96525.22
2019-01-25T14:46:12.369Z,96526.91
2019-01-25T14:48:38.383Z,96520.45
2019-01-25T14:51:04.361Z,96523.11
2019-01-25T14:53:30.205Z,96519.59
2019-01-25T14:55:56.036Z,96511.34
2019-01-25T14:58:21.910Z,96506.83
2019-01-25T15:00:47.765Z,96505.30
2019-01-25T15:03:13.724Z,96506.05
2019-01-25T15:05:39.559Z,96512.48
2019-01-25T15:08:05.546Z,96520.33
2019-01-25T15:10:31.403Z,96529.38
2019-01-25T15:12:57.324Z,96532.97
2019-01-25T15:16:04.828Z,96532.47
2019-01-25T15:18:30.641Z,96528.83
2019-01-25T15:20:56.486Z,96532.89
2019-01-25T15:23:22.327Z,96532.27
2019-01-25T15:25:48.167Z,96527.02
2019-01-25T15:28:14.053Z,96531.30
2019-01-25T15:30:39.906Z,96529.42
2019-01-25T15:33:05.753Z,96526.02
2019-01-25T15:35:31.607Z,96522.41
2019-01-25T15:37:57.437Z,96519.28
2019-01-25T15:40:23.398Z,96505.03
2019-01-25T15:42:49.314Z,96515.88
2019-01-25T15:45:56.817Z,96523.78
2019-01-25T15:48:22.642Z,96517.56
2019-01-25T15:50:48.503Z,96519.09
2019-01-25T15:53:14.325Z,96519.59
2019-01-25T15:55:40.173Z,96518.80
2019-01-25T15:58:06.071Z,96519.31
2019-01-25T16:00:31.909Z,96521.35
2019-01-25T16:02:57.968Z,96522.09
2019-01-25T16:05:23.989Z,96531.36
2019-01-25T16:07:50.057Z,96535.67
2019-01-25T16:10:57.568Z,96531.75
2019-01-25T16:13:23.434Z,96532.81
2019-01-25T16:15:49.283Z,96538.67
2019-01-25T16:18:15.136Z,96537.42
2019-01-25T16:21:00.889Z,96543.18
2019-01-25T16:23:26.760Z,96543.18
2019-01-25T16:25:52.624Z,96550.52
2019-01-25T16:28:18.476Z,96549.97
2019-01-25T16:30:44.553Z,96547.39
2019-01-25T16:33:10.385Z,96552.83
2019-01-25T16:35:36.208Z,96555.18
2019-01-25T16:40:55.738Z,96564.40
2019-01-25T16:43:21.565Z,96561.63
2019-01-25T16:45:47.483Z,96559.33
2019-01-25T16:48:13.348Z,96556.19
2019-01-25T16:50:39.859Z,96554.08
2019-01-25T16:53:48.579Z,96558.03
2019-01-25T16:56:14.410Z,96560.17
2019-01-25T16:58:40.271Z,96556.19
2019-01-25T17:01:06.092Z,96557.98
2019-01-25T17:03:31.960Z,96553.70
2019-01-25T17:05:57.809Z,96557.39
2019-01-25T17:08:23.665Z,96552.22
2019-01-25T17:10:49.509Z,96557.11
2019-01-25T17:13:15.480Z,96562.05
2019-01-25T17:15:41.351Z,96565.59
2019-01-25T17:18:07.376Z,96564.52
2019-01-25T17:20:33.335Z,96560.17
2019-01-25T17:22:59.170Z,96563.27
2019-01-25T17:25:25.012Z,96563.69
2019-01-25T17:27:51.214Z,96565.72
2019-01-25T17:30:58.701Z,96573.19
2019-01-25T17:33:24.536Z,96572.49
2019-01-25T17:35:50.405Z,96523.50
2019-01-25T17:38:16.351Z,96574.48
2019-01-25T17:40:46.765Z,96566.89
2019-01-25T17:43:10.154Z,96558.91
2019-01-25T17:45:35.983Z,96566.22
2019-01-25T17:48:02.037Z,96573.19
2019-01-25T17:50:27.858Z,96574.17
2019-01-25T17:52:53.724Z,96567.35
2019-01-25T17:55:19.562Z,96567.16
2019-01-25T17:57:45.594Z,96567.67
2019-01-25T18:00:53.125Z,96568.91
2019-01-25T18:03:19.031Z,96571.08
2019-01-25T18:05:44.869Z,96568.30
2019-01-25T18:08:52.420Z,96567.33
2019-01-25T18:11:18.493Z,96580.81
2019-01-25T18:13:44.360Z,96587.20
2019-01-25T18:16:10.248Z,96588.00
2019-01-25T18:18:36.264Z,96577.15
2019-01-25T18:21:02.368Z,96565.44
2019-01-25T18:23:28.289Z,96570.78
2019-01-25T18:26:35.827Z,96560.84
2019-01-25T18:29:01.865Z,96572.92
2019-01-25T18:32:09.407Z,96556.92
2019-01-25T18:34:35.311Z,96563.31
2019-01-25T18:37:01.298Z,96571.25
2019-01-25T18:39:27.253Z,96559.19
2019-01-25T18:41:53.238Z,96558.91
2019-01-25T18:44:19.206Z,96564.63
2019-01-25T18:46:45.151Z,96566.22
2019-01-25T18:49:11.045Z,96548.07
2019-01-25T18:51:37.064Z,96539.50
2019-01-25T18:54:03.339Z,96552.02
2019-01-25T18:56:29.487Z,96545.41
2019-01-25T18:58:55.464Z,96546.50
2019-01-25T19:01:21.499Z,96541.62
2019-01-25T19:03:47.598Z,96542.59
2019-01-25T19:06:13.692Z,96543.69
2019-01-25T19:08:39.602Z,96544.70
2019-01-25T19:11:05.602Z,96546.55
2019-01-25T19:13:31.645Z,96551.83
2019-01-25T19:15:57.493Z,96551.83
2019-01-25T19:18:23.325Z,96537.86
2019-01-25T19:20:49.603Z,96536.57
2019-01-25T19:23:15.451Z,96535.09
2019-01-25T19:25:41.288Z,96535.91
2019-01-25T19:28:07.337Z,96542.75
2019-01-25T19:31:14.821Z,96527.02
2019-01-25T19:33:40.885Z,96517.87
2019-01-25T19:36:06.873Z,96519.13
2019-01-25T19:38:52.676Z,96518.50
2019-01-25T19:41:18.785Z,96518.50
2019-01-25T19:43:44.667Z,96513.33
2019-01-25T19:46:10.549Z,96511.38
2019-01-25T19:48:36.617Z,96512.27
2019-01-25T19:51:05.037Z,96516.58
2019-01-25T19:53:31.273Z,96518.80
2019-01-25T19:58:53.647Z,96524.79
2019-01-25T20:01:19.669Z,96528.31
2019-01-25T20:03:45.429Z,96534.26
2019-01-25T20:06:11.301Z,96525.58
2019-01-25T20:08:37.239Z,96520.52
2019-01-25T20:11:03.093Z,96517.00
2019-01-25T20:13:28.950Z,96511.48
2019-01-25T20:15:54.911Z,96516.81
2019-01-25T20:18:20.766Z,96519.67
2019-01-25T20:20:46.986Z,96524.41
2019-01-25T20:23:12.810Z,96464.62
2019-01-25T20:25:39.129Z,96525.58
2019-01-25T20:28:46.621Z,96519.63
2019-01-25T20:31:12.480Z,96525.86
2019-01-25T20:33:38.360Z,96512.90
2019-01-25T20:36:04.483Z,96512.59
2019-01-25T20:38:30.585Z,96498.88
2019-01-25T20:40:56.746Z,96501.97
2019-01-25T20:43:22.815Z,96493.75
2019-01-25T20:45:48.871Z,96493.52
2019-01-25T20:48:14.822Z,96497.16
2019-01-25T20:50:40.871Z,96498.08
2019-01-25T20:53:48.355Z,96502.25
2019-01-25T20:56:14.424Z,96501.17
2019-01-25T20:58:40.464Z,96491.89
2019-01-25T21:01:06.549Z,96485.98
2019-01-25T21:03:32.389Z,96476.62
2019-01-25T21:05:58.393Z,96490.70
2019-01-25T21:08:24.402Z,96483.69
2019-01-25T21:10:50.269Z,96472.80
2019-01-25T21:13:16.126Z,96469.52
2019-01-25T21:15:42.076Z,96470.50
2019-01-25T21:18:08.140Z,96462.81
2019-01-25T21:20:53.812Z,96464.34
2019-01-25T21:23:19.781Z,96454.81
2019-01-25T21:25:45.761Z,96446.47
2019-01-25T21:28:11.959Z,96455.85
2019-01-25T21:30:38.091Z,96454.14
2019-01-25T21:33:45.587Z,96450.26
2019-01-25T21:36:11.517Z,96447.95
2019-01-25T21:38:37.395Z,96442.50
2019-01-25T21:41:03.607Z,96447.97
2019-01-25T21:43:29.475Z,96451.61
2019-01-25T21:45:55.301Z,96452.94
2019-01-25T21:48:21.194Z,96443.19
2019-01-25T21:50:47.123Z,96436.63
2019-01-25T21:53:13.202Z,96435.09
2019-01-25T21:55:39.531Z,96425.27
2019-01-25T21:58:05.739Z,96423.03
2019-01-25T22:01:14.979Z,96416.13
2019-01-25T22:03:40.855Z,96415.84
2019-01-25T22:06:06.704Z,96412.34
2019-01-25T22:08:32.548Z,96412.34
2019-01-25T22:10:58.534Z,96440.53
2019-01-25T22:13:24.483Z,96433.03
2019-01-25T22:15:51.216Z,96421.09
2019-01-25T22:18:18.299Z,96413.60
2019-01-25T22:20:44.305Z,96410.77
2019-01-25T22:23:30.074Z,96389.02
2019-01-25T22:25:56.012Z,96389.02
2019-01-25T22:28:21.998Z,96389.30
2019-01-25T22:30:47.920Z,96386.70
2019-01-25T22:33:13.961Z,96379.19
2019-01-25T22:35:39.877Z,96387.46
2019-01-25T22:38:05.815Z,96385.90
2019-01-25T22:40:32.054Z,96383.31
2019-01-25T22:42:57.967Z,96387.65
2019-01-25T22:46:05.534Z,96389.48
2019-01-25T22:48:31.528Z,96389.72
2019-01-25T22:50:57.476Z,96374.80
2019-01-25T22:53:45.150Z,96374.80
2019-01-25T22:56:11.152Z,96368.59
2019-01-25T22:58:37.103Z,96359.78
2019-01-25T23:01:23.480Z,96361.59
2019-01-25T23:04:13.994Z,96364.20
2019-01-25T23:07:01.763Z,96364.71
2019-01-25T23:10:09.287Z,96376.11
2019-01-25T23:18:07.566Z,96358.02
2019-01-25T23:20:33.429Z,96353.88
2019-01-25T23:22:59.344Z,96264.02
2019-01-25T23:25:25.198Z,96353.38
2019-01-25T23:27:51.047Z,96350.55
2019-01-25T23:30:16.964Z,96344.16
2019-01-25T23:33:24.441Z,96350.09
2019-01-25T23:35:50.315Z,96348.82
2019-01-25T23:38:16.121Z,96346.50
2019-01-25T23:40:41.953Z,96326.08
2019-01-25T23:43:07.781Z,96331.77
2019-01-25T23:45:33.617Z,96324.81
2019-01-25T23:47:59.460Z,96327.98
2019-01-25T23:50:25.295Z,96321.73
2019-01-25T23:52:51.119Z,96318.94
2019-01-25T23:55:17.017Z,96317.91
2019-01-25T23:57:42.989Z,96307.80
